Milan, Tennessee
Current Conditions -  °F | °C
As of 9:53 AM on Thursday 23 Oct 2014 (Local Time) from KMKL Reporting Station
Clear Clear  
Wind Chill: 51°   Ceiling: Unl
Heat Index: 51°   Visibility: 10mi
Dew Point: 43°   Wind: 8mph
Humidity: 74%   Direction: 80°E
Pressure: 30.23"   Gusts: NA
Location:  35.92°N, 88.76°W
Report Text: KMKL 231453Z 08007KT 10SM CLR 11/06 A3023 RMK AO2 SLP236 T01060061 53013
Loading
Personal Weather Stations






























Interactive Weather Map New forecast layout! Learn more

10-Day Weather Forecast

Advertisements
Track Severe Weather on mobile